Time;durP1;ratioP1;P1;durP2;ratioP2;P2;SDS_P1;SDS_P2;PMS_P1;PMS_P2;Temp;Humidity;BMP_temperature;BMP_pressure;BME280_temperature;BME280_humidity;BME280_pressure;Samples;Min_cycle;Max_cycle;Signal;HPM_P1;HPM_P2
2021/12/28 00:00:10;;;;;;;;;;;9.60;85.30;;;;;;5068987;27;83695;-54
2021/12/28 00:02:36;;;;;;;;;;;9.60;84.90;;;;;;5068769;27;81771;-56
2021/12/28 00:05:02;;;;;;;;;;;9.60;85.70;;;;;;5068480;27;84077;-57
2021/12/28 00:07:28;;;;;;;;;;;9.60;85.50;;;;;;5067482;27;84707;-55
2021/12/28 00:09:53;;;;;;;;;;;9.60;85.10;;;;;;5068323;27;82007;-57
2021/12/28 00:12:18;;;;;;;;;;;9.60;85.60;;;;;;5068452;27;83132;-56
2021/12/28 00:15:01;;;;;;;;;;;9.60;86.00;;;;;;5068223;27;84563;-55
2021/12/28 00:20:10;;;;;;;;;;;9.60;85.80;;;;;;5068044;27;82201;-57
2021/12/28 00:22:36;;;;;;;;;;;9.60;85.90;;;;;;5049830;27;82223;-55
2021/12/28 00:25:04;;;;;;;;;;;9.50;85.60;;;;;;5068568;27;84097;-56
2021/12/28 00:27:29;;;;;;;;;;;9.50;86.10;;;;;;5067983;27;84418;-57
2021/12/28 00:29:55;;;;;;;;;;;9.50;85.10;;;;;;5050055;27;81922;-52
2021/12/28 00:32:21;;;;;;;;;;;9.50;85.30;;;;;;5067553;27;83032;-55
2021/12/28 00:34:46;;;;;;;;;;;9.50;85.10;;;;;;5067766;27;84519;-55
2021/12/28 00:37:12;;;;;;;;;;;9.50;85.40;;;;;;5068075;27;82050;-53
2021/12/28 00:39:37;;;;;;;;;;;9.50;85.40;;;;;;5070675;27;83786;-53
2021/12/28 00:42:03;;;;;;;;;;;9.50;85.50;;;;;;5067857;27;82009;-56
2021/12/28 00:44:29;;;;;;;;;;;9.50;84.90;;;;;;5067987;27;82801;-55
2021/12/28 00:46:54;;;;;;;;;;;9.50;85.20;;;;;;5067989;27;82673;-56
2021/12/28 00:49:20;;;;;;;;;;;9.50;85.50;;;;;;5068159;27;81183;-58
2021/12/28 00:51:45;;;;;;;;;;;9.50;85.50;;;;;;5066938;27;82394;-55
2021/12/28 00:54:11;;;;;;;;;;;9.50;85.10;;;;;;5067657;27;84884;-53
2021/12/28 00:56:36;;;;;;;;;;;9.50;86.60;;;;;;5067169;27;83129;-53
2021/12/28 00:59:02;;;;;;;;;;;9.50;85.70;;;;;;5067568;27;85034;-55
2021/12/28 01:01:27;;;;;;;;;;;9.50;85.40;;;;;;5070137;27;84537;-55
2021/12/28 01:03:53;;;;;;;;;;;9.50;85.10;;;;;;5067743;27;82408;-55
2021/12/28 01:06:19;;;;;;;;;;;9.40;85.60;;;;;;5067544;27;84769;-56
2021/12/28 01:08:44;;;;;;;;;;;9.50;84.90;;;;;;5067554;27;81998;-55
2021/12/28 01:11:10;;;;;;;;;;;9.50;85.20;;;;;;5067530;27;83163;-55
2021/12/28 01:13:35;;;;;;;;;;;9.40;85.80;;;;;;5067840;27;83096;-56
2021/12/28 01:16:01;;;;;;;;;;;9.40;85.70;;;;;;5067644;27;82106;-54
2021/12/28 01:18:26;;;;;;;;;;;9.40;85.80;;;;;;5067386;27;83201;-54
2021/12/28 01:20:52;;;;;;;;;;;9.40;85.40;;;;;;5066193;27;85387;-56
2021/12/28 01:23:18;;;;;;;;;;;9.40;85.40;;;;;;5070274;27;82067;-56
2021/12/28 01:25:43;;;;;;;;;;;9.40;85.20;;;;;;5066970;27;84749;-55
2021/12/28 01:28:09;;;;;;;;;;;9.40;85.60;;;;;;5067246;27;82060;-56
2021/12/28 01:30:35;;;;;;;;;;;9.40;85.50;;;;;;5067185;27;84517;-54
2021/12/28 01:33:02;;;;;;;;;;;9.40;85.30;;;;;;5066966;27;84771;-53
2021/12/28 01:35:29;;;;;;;;;;;9.40;84.90;;;;;;5067008;27;82130;-56
2021/12/28 01:37:54;;;;;;;;;;;9.40;85.30;;;;;;5067675;27;84091;-56
2021/12/28 01:40:23;;;;;;;;;;;9.40;85.00;;;;;;5066870;27;84382;-55
2021/12/28 01:42:55;;;;;;;;;;;9.40;85.50;;;;;;5067311;27;82075;-55
2021/12/28 01:45:36;;;;;;;;;;;9.40;85.40;;;;;;5069043;27;84082;-55
2021/12/28 01:48:01;;;;;;;;;;;9.30;85.10;;;;;;5066643;27;82150;-54
2021/12/28 01:50:27;;;;;;;;;;;9.30;84.80;;;;;;5066616;27;82073;-57
2021/12/28 01:52:53;;;;;;;;;;;9.30;85.10;;;;;;5067050;27;84618;-57
2021/12/28 01:55:18;;;;;;;;;;;9.40;85.10;;;;;;5067091;27;81825;-57
2021/12/28 01:57:44;;;;;;;;;;;9.40;85.10;;;;;;5066820;27;84179;-54
2021/12/28 02:00:10;;;;;;;;;;;9.30;85.10;;;;;;5066781;27;85242;-56
2021/12/28 02:02:36;;;;;;;;;;;9.40;85.10;;;;;;5068231;27;81357;-56
2021/12/28 02:05:01;;;;;;;;;;;9.30;85.00;;;;;;5070871;27;82024;-56
2021/12/28 02:07:27;;;;;;;;;;;9.40;84.80;;;;;;5073045;27;84105;-56
2021/12/28 02:09:52;;;;;;;;;;;9.30;85.20;;;;;;5070135;27;83032;-57
2021/12/28 02:12:18;;;;;;;;;;;9.30;85.20;;;;;;5070193;27;84436;-57
2021/12/28 02:14:44;;;;;;;;;;;9.30;84.90;;;;;;5070443;27;82096;-57
2021/12/28 02:17:10;;;;;;;;;;;9.30;84.90;;;;;;5070067;27;84125;-57
2021/12/28 02:19:36;;;;;;;;;;;9.30;85.00;;;;;;5070159;27;84334;-56
2021/12/28 02:22:02;;;;;;;;;;;9.30;84.90;;;;;;5070145;27;82020;-56
2021/12/28 02:24:27;;;;;;;;;;;9.30;85.10;;;;;;5070296;27;84243;-56
2021/12/28 02:26:53;;;;;;;;;;;9.30;85.20;;;;;;5073049;27;82818;-55
2021/12/28 02:29:19;;;;;;;;;;;9.30;85.40;;;;;;5070177;27;83280;-54
2021/12/28 02:31:45;;;;;;;;;;;9.30;84.70;;;;;;5069618;27;84420;-57
2021/12/28 02:34:11;;;;;;;;;;;9.30;85.10;;;;;;5069338;27;82983;-55
2021/12/28 02:36:36;;;;;;;;;;;9.30;85.50;;;;;;5069898;27;85573;-57
2021/12/28 02:39:02;;;;;;;;;;;9.30;84.80;;;;;;5069859;27;84747;-53
2021/12/28 02:41:28;;;;;;;;;;;9.30;85.10;;;;;;5069818;27;81984;-56
2021/12/28 02:44:00;;;;;;;;;;;9.30;85.00;;;;;;5069954;27;84190;-55
2021/12/28 02:46:26;;;;;;;;;;;9.30;85.00;;;;;;5069205;27;84546;-57
2021/12/28 02:48:52;;;;;;;;;;;9.30;84.80;;;;;;5072626;27;81944;-56
2021/12/28 02:51:17;;;;;;;;;;;9.30;85.10;;;;;;5069368;27;83420;-56
2021/12/28 02:53:44;;;;;;;;;;;9.20;85.30;;;;;;5070038;27;82161;-55
2021/12/28 02:56:11;;;;;;;;;;;9.30;85.00;;;;;;5069784;27;83743;-55
2021/12/28 02:58:44;;;;;;;;;;;9.20;84.90;;;;;;5068868;27;85500;-53
2021/12/28 03:01:20;;;;;;;;;;;9.20;84.90;;;;;;5069130;27;82075;-55
2021/12/28 03:03:46;;;;;;;;;;;9.20;84.80;;;;;;5069507;27;83932;-55
2021/12/28 03:06:13;;;;;;;;;;;9.20;84.80;;;;;;5069404;27;84818;-56
2021/12/28 03:08:40;;;;;;;;;;;9.20;85.40;;;;;;5069864;27;82111;-54
2021/12/28 03:11:08;;;;;;;;;;;9.20;84.90;;;;;;5071907;27;83852;-53
2021/12/28 03:13:38;;;;;;;;;;;9.20;84.80;;;;;;5068756;27;81927;-55
2021/12/28 03:16:04;;;;;;;;;;;9.20;85.00;;;;;;5070114;27;84205;-55
2021/12/28 03:18:30;;;;;;;;;;;9.20;85.10;;;;;;5069154;27;84388;-56
2021/12/28 03:20:56;;;;;;;;;;;9.20;85.10;;;;;;5069478;27;81855;-55
2021/12/28 03:23:23;;;;;;;;;;;9.20;84.90;;;;;;5068604;27;83955;-53
2021/12/28 03:25:49;;;;;;;;;;;9.20;85.10;;;;;;5069113;27;83726;-52
2021/12/28 03:28:16;;;;;;;;;;;9.20;85.00;;;;;;5069434;27;81866;-55
2021/12/28 03:30:41;;;;;;;;;;;9.20;84.70;;;;;;5069106;27;83664;-56
2021/12/28 03:33:07;;;;;;;;;;;9.20;84.70;;;;;;5071876;27;83745;-56
2021/12/28 03:35:32;;;;;;;;;;;9.20;84.90;;;;;;5069126;27;83189;-53
2021/12/28 03:37:58;;;;;;;;;;;9.20;84.80;;;;;;5068764;27;84578;-54
2021/12/28 03:40:23;;;;;;;;;;;9.20;84.90;;;;;;5069400;27;81912;-56
2021/12/28 03:42:49;;;;;;;;;;;9.20;84.80;;;;;;5068885;27;83269;-56
2021/12/28 03:45:15;;;;;;;;;;;9.20;85.00;;;;;;5068925;27;84740;-55
2021/12/28 03:47:40;;;;;;;;;;;9.20;84.90;;;;;;5068079;27;83056;-55
2021/12/28 03:50:07;;;;;;;;;;;9.20;84.70;;;;;;5068870;27;85201;-55
2021/12/28 03:52:32;;;;;;;;;;;9.10;84.90;;;;;;5068335;27;84252;-56
2021/12/28 03:54:58;;;;;;;;;;;9.10;84.70;;;;;;5071575;27;81786;-54
2021/12/28 03:57:23;;;;;;;;;;;9.10;84.80;;;;;;5068400;27;84663;-53
2021/12/28 03:59:49;;;;;;;;;;;9.10;84.70;;;;;;5068854;27;81885;-54
2021/12/28 04:02:14;;;;;;;;;;;9.10;84.60;;;;;;5068449;27;84332;-55
2021/12/28 04:04:40;;;;;;;;;;;9.10;84.70;;;;;;5068972;27;84047;-55
2021/12/28 04:07:09;;;;;;;;;;;9.10;84.50;;;;;;5068417;27;82222;-56
2021/12/28 04:12:15;;;;;;;;;;;9.10;84.70;;;;;;5067719;27;83931;-55
2021/12/28 04:14:41;;;;;;;;;;;9.10;85.30;;;;;;5068422;27;82102;-53
2021/12/28 04:17:07;;;;;;;;;;;9.10;84.70;;;;;;5071022;27;84139;-57
2021/12/28 04:19:32;;;;;;;;;;;9.10;84.70;;;;;;5068257;27;82024;-55
2021/12/28 04:21:58;;;;;;;;;;;9.10;84.60;;;;;;5068216;27;84052;-54
2021/12/28 04:24:23;;;;;;;;;;;9.10;84.70;;;;;;5067874;27;83233;-54
2021/12/28 04:26:49;;;;;;;;;;;9.10;84.70;;;;;;5067507;27;82129;-56
2021/12/28 04:29:14;;;;;;;;;;;9.10;84.60;;;;;;5068708;27;84151;-56
2021/12/28 04:31:40;;;;;;;;;;;9.00;84.60;;;;;;5068142;27;83220;-56
2021/12/28 04:34:05;;;;;;;;;;;9.00;84.60;;;;;;5068233;27;82136;-55
2021/12/28 04:36:31;;;;;;;;;;;9.10;84.50;;;;;;5069956;27;83779;-54
2021/12/28 04:38:56;;;;;;;;;;;9.00;84.70;;;;;;5067985;27;82092;-55
2021/12/28 04:41:22;;;;;;;;;;;9.00;84.50;;;;;;5067889;27;82726;-55
2021/12/28 04:43:48;;;;;;;;;;;9.00;84.70;;;;;;5067809;27;84911;-53
2021/12/28 04:46:14;;;;;;;;;;;9.00;84.60;;;;;;5067956;27;81945;-54
2021/12/28 04:48:40;;;;;;;;;;;9.00;84.40;;;;;;5068056;27;82105;-52
2021/12/28 04:51:06;;;;;;;;;;;9.00;84.60;;;;;;5067268;27;83039;-54
2021/12/28 04:53:32;;;;;;;;;;;9.00;84.70;;;;;;5068276;27;81387;-57
2021/12/28 04:55:57;;;;;;;;;;;9.00;84.50;;;;;;5067813;27;83160;-52
2021/12/28 04:58:23;;;;;;;;;;;9.00;84.80;;;;;;5070616;27;83965;-56
2021/12/28 05:00:49;;;;;;;;;;;9.00;84.80;;;;;;5067122;27;83733;-56
2021/12/28 05:03:15;;;;;;;;;;;9.00;84.70;;;;;;5067791;27;82182;-53
2021/12/28 05:05:43;;;;;;;;;;;9.00;84.70;;;;;;5067743;27;82095;-55
2021/12/28 05:08:10;;;;;;;;;;;9.00;84.70;;;;;;5067727;27;83907;-56
2021/12/28 05:10:35;;;;;;;;;;;9.00;84.80;;;;;;5067357;27;84378;-54
2021/12/28 05:13:02;;;;;;;;;;;9.00;84.80;;;;;;5067791;27;82068;-56
2021/12/28 05:15:28;;;;;;;;;;;9.00;84.60;;;;;;5067725;27;84136;-54
2021/12/28 05:17:53;;;;;;;;;;;9.00;84.70;;;;;;5067705;27;83837;-56
2021/12/28 05:20:19;;;;;;;;;;;9.00;84.60;;;;;;5070191;27;82083;-55
2021/12/28 05:22:44;;;;;;;;;;;9.00;84.70;;;;;;5066973;27;84806;-55
2021/12/28 05:25:10;;;;;;;;;;;9.00;84.80;;;;;;5066625;27;82968;-56
2021/12/28 05:27:36;;;;;;;;;;;8.90;84.60;;;;;;5067118;27;84365;-51
2021/12/28 05:30:02;;;;;;;;;;;8.90;85.40;;;;;;5067170;27;83412;-54
2021/12/28 05:32:28;;;;;;;;;;;8.90;84.70;;;;;;5067343;27;82033;-54
2021/12/28 05:34:53;;;;;;;;;;;8.90;84.70;;;;;;5067609;27;82503;-56
2021/12/28 05:37:19;;;;;;;;;;;9.00;84.80;;;;;;5066658;27;84795;-54
2021/12/28 05:39:44;;;;;;;;;;;8.90;84.70;;;;;;5067094;27;82106;-53
2021/12/28 05:42:10;;;;;;;;;;;9.00;84.70;;;;;;5069937;27;84076;-54
2021/12/28 05:44:35;;;;;;;;;;;8.90;84.70;;;;;;5067068;27;82128;-54
2021/12/28 05:47:01;;;;;;;;;;;8.90;84.80;;;;;;5067058;27;84321;-55
2021/12/28 05:49:27;;;;;;;;;;;8.90;84.70;;;;;;5066254;27;85477;-56
2021/12/28 05:51:52;;;;;;;;;;;8.90;84.60;;;;;;5066137;27;82045;-54
2021/12/28 05:54:18;;;;;;;;;;;8.90;84.70;;;;;;5067098;27;84348;-55
2021/12/28 05:56:45;;;;;;;;;;;8.90;84.90;;;;;;5066624;27;84516;-56
2021/12/28 05:59:10;;;;;;;;;;;8.90;84.80;;;;;;5067135;27;82130;-52
2021/12/28 06:01:36;;;;;;;;;;;8.90;84.80;;;;;;5066885;27;84053;-56
2021/12/28 06:04:02;;;;;;;;;;;8.90;84.60;;;;;;5069272;27;84133;-55
2021/12/28 06:06:27;;;;;;;;;;;8.90;84.90;;;;;;5067278;27;84211;-56
2021/12/28 06:08:53;;;;;;;;;;;8.90;84.80;;;;;;5066593;27;83889;-55
2021/12/28 06:11:19;;;;;;;;;;;8.90;84.70;;;;;;5066640;27;82085;-56
2021/12/28 06:13:44;;;;;;;;;;;8.90;84.70;;;;;;5066182;27;83780;-56
2021/12/28 06:16:10;;;;;;;;;;;8.80;84.70;;;;;;5066887;27;82775;-55
2021/12/28 06:18:36;;;;;;;;;;;8.90;84.80;;;;;;5066829;27;82023;-55
2021/12/28 06:21:02;;;;;;;;;;;8.90;84.80;;;;;;5066699;27;84018;-55
2021/12/28 06:23:28;;;;;;;;;;;8.90;84.90;;;;;;5066476;27;84433;-55
2021/12/28 06:25:53;;;;;;;;;;;8.80;85.10;;;;;;5069031;27;81878;-52
2021/12/28 06:28:19;;;;;;;;;;;8.90;84.80;;;;;;5066546;27;82907;-53
2021/12/28 06:30:45;;;;;;;;;;;8.90;85.30;;;;;;5067242;27;81215;-54
2021/12/28 06:33:10;;;;;;;;;;;8.80;84.90;;;;;;5066539;27;83133;-53
2021/12/28 06:35:36;;;;;;;;;;;8.90;84.90;;;;;;5066313;27;84518;-55
2021/12/28 06:38:02;;;;;;;;;;;8.90;84.90;;;;;;5065776;27;83106;-53
2021/12/28 06:40:28;;;;;;;;;;;8.80;85.10;;;;;;5066358;27;83971;-54
2021/12/28 06:42:53;;;;;;;;;;;8.80;84.80;;;;;;5065873;27;84114;-55
2021/12/28 06:45:19;;;;;;;;;;;8.80;85.10;;;;;;5069117;27;82114;-54
2021/12/28 06:47:44;;;;;;;;;;;8.80;84.80;;;;;;5066238;27;83702;-56
2021/12/28 06:50:11;;;;;;;;;;;8.80;85.00;;;;;;5070062;27;82075;-55
2021/12/28 06:52:37;;;;;;;;;;;8.80;85.10;;;;;;5069555;27;83941;-55
2021/12/28 06:55:03;;;;;;;;;;;8.80;84.90;;;;;;5070276;27;82331;-55
2021/12/28 06:57:28;;;;;;;;;;;8.80;85.10;;;;;;5069477;27;81922;-56
2021/12/28 06:59:54;;;;;;;;;;;8.90;85.10;;;;;;5070003;27;82507;-56
2021/12/28 07:02:19;;;;;;;;;;;8.80;84.90;;;;;;5068538;27;85806;-55
2021/12/28 07:04:45;;;;;;;;;;;8.80;85.00;;;;;;5069553;27;82113;-55
2021/12/28 07:07:12;;;;;;;;;;;8.80;85.00;;;;;;5072246;27;83985;-55
2021/12/28 07:09:37;;;;;;;;;;;8.80;84.90;;;;;;5069358;27;81810;-54
2021/12/28 07:12:03;;;;;;;;;;;8.80;85.10;;;;;;5069063;27;83857;-56
2021/12/28 07:14:29;;;;;;;;;;;8.80;84.90;;;;;;5069633;27;82081;-55
2021/12/28 07:16:55;;;;;;;;;;;8.80;85.10;;;;;;5069488;27;82061;-55
2021/12/28 07:19:21;;;;;;;;;;;8.80;85.00;;;;;;5070081;27;82745;-55
2021/12/28 07:21:46;;;;;;;;;;;8.80;85.00;;;;;;5068935;27;85297;-54
2021/12/28 07:24:13;;;;;;;;;;;8.80;85.00;;;;;;5069562;27;82012;-55
2021/12/28 07:26:39;;;;;;;;;;;8.80;84.90;;;;;;5068320;27;83897;-51
2021/12/28 07:29:04;;;;;;;;;;;8.80;85.00;;;;;;5071640;27;83969;-52
2021/12/28 07:31:30;;;;;;;;;;;8.80;85.30;;;;;;5069028;27;83760;-52
2021/12/28 07:33:56;;;;;;;;;;;8.80;85.10;;;;;;5068964;27;84436;-55
2021/12/28 07:36:21;;;;;;;;;;;8.80;85.30;;;;;;5068849;27;82124;-54
2021/12/28 07:38:47;;;;;;;;;;;8.80;85.00;;;;;;5069219;27;82468;-55
2021/12/28 07:41:13;;;;;;;;;;;8.80;85.10;;;;;;5068411;27;84731;-55
2021/12/28 07:43:38;;;;;;;;;;;8.80;85.10;;;;;;5069496;27;81645;-52
2021/12/28 07:46:04;;;;;;;;;;;8.80;85.30;;;;;;5068859;27;83280;-55
2021/12/28 07:48:30;;;;;;;;;;;8.80;85.10;;;;;;5068615;27;84633;-52
2021/12/28 07:50:56;;;;;;;;;;;8.80;85.10;;;;;;5070515;27;82974;-54
2021/12/28 07:53:21;;;;;;;;;;;8.80;85.40;;;;;;5068653;27;84596;-53
2021/12/28 07:55:47;;;;;;;;;;;8.80;85.40;;;;;;5068796;27;82132;-52
2021/12/28 07:58:13;;;;;;;;;;;8.80;85.20;;;;;;5068706;27;84024;-55
2021/12/28 08:00:38;;;;;;;;;;;8.80;85.20;;;;;;5068512;27;83492;-54
2021/12/28 08:03:04;;;;;;;;;;;8.80;85.10;;;;;;5068603;27;82066;-52
2021/12/28 08:05:31;;;;;;;;;;;8.80;85.10;;;;;;5068581;27;83915;-51
2021/12/28 08:07:57;;;;;;;;;;;8.80;85.10;;;;;;5068862;27;83581;-55
2021/12/28 08:10:23;;;;;;;;;;;8.80;85.50;;;;;;5068641;27;82133;-52
2021/12/28 08:12:49;;;;;;;;;;;8.80;85.30;;;;;;5071222;27;83973;-55
2021/12/28 08:15:15;;;;;;;;;;;8.80;85.20;;;;;;5067733;27;83003;-52
2021/12/28 08:17:41;;;;;;;;;;;8.90;85.00;;;;;;5068258;27;84947;-52
2021/12/28 08:20:08;;;;;;;;;;;8.80;85.10;;;;;;5068039;27;84678;-54
2021/12/28 08:22:33;;;;;;;;;;;8.80;85.00;;;;;;5068388;27;82132;-55
2021/12/28 08:24:59;;;;;;;;;;;8.80;85.10;;;;;;5068232;27;84150;-52
2021/12/28 08:27:26;;;;;;;;;;;8.80;85.30;;;;;;5068015;27;84516;-55
2021/12/28 08:29:52;;;;;;;;;;;8.80;85.50;;;;;;5068151;27;81971;-54
2021/12/28 08:32:17;;;;;;;;;;;8.80;85.40;;;;;;5071291;27;84080;-54
2021/12/28 08:34:43;;;;;;;;;;;8.80;85.40;;;;;;5068334;27;82000;-52
2021/12/28 08:37:09;;;;;;;;;;;8.80;85.30;;;;;;5068172;27;83946;-52
2021/12/28 08:39:34;;;;;;;;;;;8.80;85.30;;;;;;5067226;27;85344;-54
2021/12/28 08:42:00;;;;;;;;;;;8.80;85.50;;;;;;5067556;27;82148;-52
2021/12/28 08:44:27;;;;;;;;;;;8.80;85.60;;;;;;5067924;27;83826;-56
2021/12/28 08:46:53;;;;;;;;;;;8.80;85.60;;;;;;5067889;27;82222;-55
2021/12/28 08:49:18;;;;;;;;;;;8.80;85.50;;;;;;5067777;27;82077;-56
2021/12/28 08:51:44;;;;;;;;;;;8.80;85.50;;;;;;5067557;27;84062;-54
2021/12/28 08:54:10;;;;;;;;;;;8.80;85.60;;;;;;5070417;27;84874;-55
2021/12/28 08:56:35;;;;;;;;;;;8.80;85.60;;;;;;5068125;27;82893;-54
2021/12/28 08:59:01;;;;;;;;;;;8.80;85.50;;;;;;5067585;27;84659;-54
2021/12/28 09:01:27;;;;;;;;;;;8.80;85.50;;;;;;5067763;27;82052;-53
2021/12/28 09:03:53;;;;;;;;;;;8.80;85.40;;;;;;5067190;27;83879;-55
2021/12/28 09:06:19;;;;;;;;;;;8.80;85.40;;;;;;5067497;27;83518;-53
2021/12/28 09:08:44;;;;;;;;;;;8.80;85.40;;;;;;5067449;27;81768;-55
2021/12/28 09:11:10;;;;;;;;;;;8.80;85.50;;;;;;5066713;27;83987;-55
2021/12/28 09:13:37;;;;;;;;;;;8.80;85.50;;;;;;5067243;27;84223;-52
2021/12/28 09:16:03;;;;;;;;;;;8.80;85.50;;;;;;5070206;27;81897;-55
2021/12/28 09:18:28;;;;;;;;;;;8.80;85.60;;;;;;5067289;27;84671;-53
2021/12/28 09:20:56;;;;;;;;;;;8.80;85.70;;;;;;5067774;27;81386;-55
2021/12/28 09:23:21;;;;;;;;;;;8.80;85.50;;;;;;5067321;27;83134;-53
2021/12/28 09:25:47;;;;;;;;;;;8.80;85.70;;;;;;5067127;27;83170;-53
2021/12/28 09:28:13;;;;;;;;;;;8.80;85.60;;;;;;5066627;27;83001;-55
2021/12/28 09:30:39;;;;;;;;;;;8.80;85.60;;;;;;5067456;27;84105;-54
2021/12/28 09:33:04;;;;;;;;;;;8.80;85.50;;;;;;5067179;27;83453;-52
2021/12/28 09:35:30;;;;;;;;;;;8.80;85.50;;;;;;5067225;27;82112;-55
2021/12/28 09:37:56;;;;;;;;;;;8.80;85.50;;;;;;5069925;27;84077;-55
2021/12/28 09:40:21;;;;;;;;;;;8.80;85.50;;;;;;5067096;27;81991;-53
2021/12/28 09:42:47;;;;;;;;;;;8.80;85.40;;;;;;5067278;27;82549;-56
2021/12/28 09:45:14;;;;;;;;;;;8.80;85.20;;;;;;5067617;27;82673;-52
2021/12/28 09:47:41;;;;;;;;;;;8.80;85.10;;;;;;5066975;27;82116;-55
2021/12/28 09:50:08;;;;;;;;;;;8.90;85.00;;;;;;5067028;27;83057;-55
2021/12/28 09:52:34;;;;;;;;;;;8.90;84.90;;;;;;5065992;27;85388;-51
2021/12/28 09:54:59;;;;;;;;;;;8.90;85.10;;;;;;5067055;27;82049;-55
2021/12/28 09:57:25;;;;;;;;;;;8.90;85.20;;;;;;5066789;27;84311;-55
2021/12/28 09:59:50;;;;;;;;;;;8.90;85.20;;;;;;5069520;27;84357;-54
2021/12/28 10:02:16;;;;;;;;;;;8.90;85.20;;;;;;5067109;27;82438;-56
2021/12/28 10:05:04;;;;;;;;;;;8.90;85.20;;;;;;5066577;27;83458;-51
2021/12/28 10:07:30;;;;;;;;;;;8.90;85.20;;;;;;5066591;27;83877;-55
2021/12/28 10:09:56;;;;;;;;;;;8.90;85.10;;;;;;5067302;27;83841;-55
2021/12/28 10:12:48;;;;;;;;;;;8.90;85.10;;;;;;5066642;27;84785;-55
2021/12/28 10:15:15;;;;;;;;;;;8.90;85.10;;;;;;5061627;27;81994;-52
2021/12/28 10:17:43;;;;;;;;;;;8.90;85.20;;;;;;5066123;27;83001;-53
2021/12/28 10:20:10;;;;;;;;;;;8.90;85.20;;;;;;5066272;27;83465;-54
2021/12/28 10:22:37;;;;;;;;;;;8.90;85.30;;;;;;5069334;27;82078;-52
2021/12/28 10:25:12;;;;;;;;;;;8.90;85.90;;;;;;5070008;27;83452;-54
2021/12/28 10:27:41;;;;;;;;;;;8.90;85.40;;;;;;5070173;27;81701;-52
2021/12/28 10:30:10;;;;;;;;;;;8.90;85.30;;;;;;5070217;27;82626;-53
2021/12/28 10:32:36;;;;;;;;;;;8.90;85.40;;;;;;5069791;27;85761;-52
2021/12/28 10:35:06;;;;;;;;;;;8.90;85.40;;;;;;5070870;27;81280;-51
2021/12/28 10:37:33;;;;;;;;;;;8.90;85.50;;;;;;5069951;27;82225;-54
2021/12/28 10:39:59;;;;;;;;;;;8.90;85.50;;;;;;5069917;27;84658;-53
2021/12/28 10:42:37;;;;;;;;;;;8.90;85.50;;;;;;5071838;27;82958;-53
2021/12/28 10:45:04;;;;;;;;;;;9.00;85.70;;;;;;5069684;27;84861;-53
2021/12/28 10:47:29;;;;;;;;;;;9.00;85.50;;;;;;5069373;27;81945;-44
2021/12/28 10:49:56;;;;;;;;;;;9.00;85.90;;;;;;5067875;27;83960;-50
2021/12/28 10:52:24;;;;;;;;;;;8.90;86.00;;;;;;5069058;27;83739;-51
2021/12/28 10:54:50;;;;;;;;;;;8.90;86.40;;;;;;5069381;27;81984;-48
2021/12/28 10:57:15;;;;;;;;;;;8.80;86.40;;;;;;5069929;27;81902;-47
2021/12/28 10:59:41;;;;;;;;;;;8.90;86.40;;;;;;5069841;27;84016;-48
2021/12/28 11:02:06;;;;;;;;;;;9.00;86.40;;;;;;5069220;27;82105;-48
2021/12/28 11:04:36;;;;;;;;;;;9.00;86.10;;;;;;5072132;27;83782;-51
2021/12/28 11:07:03;;;;;;;;;;;9.10;85.80;;;;;;5068590;27;82988;-49
2021/12/28 11:09:29;;;;;;;;;;;9.00;85.90;;;;;;5069808;27;84234;-49
2021/12/28 11:11:55;;;;;;;;;;;9.10;86.00;;;;;;5069411;27;82209;-49
2021/12/28 11:14:22;;;;;;;;;;;9.00;86.00;;;;;;5069305;27;82072;-50
2021/12/28 11:16:49;;;;;;;;;;;9.10;86.20;;;;;;5069391;27;84062;-49
2021/12/28 11:19:22;;;;;;;;;;;9.10;86.60;;;;;;5050686;27;86353;-53
2021/12/28 11:21:54;;;;;;;;;;;9.10;86.00;;;;;;5069230;27;81908;-49
2021/12/28 11:24:20;;;;;;;;;;;9.10;85.90;;;;;;5069841;27;82881;-51
2021/12/28 11:26:47;;;;;;;;;;;9.10;85.80;;;;;;5071874;27;83897;-52
2021/12/28 11:29:15;;;;;;;;;;;9.20;86.20;;;;;;5069004;27;82442;-50
2021/12/28 11:31:43;;;;;;;;;;;9.20;85.80;;;;;;5068255;27;85371;-49
2021/12/28 11:34:12;;;;;;;;;;;9.20;85.90;;;;;;5068676;27;82085;-49
2021/12/28 11:36:40;;;;;;;;;;;9.20;85.90;;;;;;5068924;27;84189;-52
2021/12/28 11:39:08;;;;;;;;;;;9.20;85.60;;;;;;5068602;27;84546;-48
2021/12/28 11:41:33;;;;;;;;;;;9.20;85.60;;;;;;5068851;27;82066;-59
2021/12/28 11:43:59;;;;;;;;;;;9.20;85.30;;;;;;5068769;27;83353;-61
2021/12/28 11:46:25;;;;;;;;;;;9.20;86.20;;;;;;5068865;27;82784;-56
2021/12/28 11:48:51;;;;;;;;;;;9.20;86.80;;;;;;5072170;27;81348;-55
2021/12/28 11:51:16;;;;;;;;;;;9.20;87.90;;;;;;5068011;27;84530;-64
2021/12/28 11:53:44;;;;;;;;;;;9.20;87.10;;;;;;5068667;27;82142;-60
2021/12/28 11:56:11;;;;;;;;;;;9.20;87.30;;;;;;5068215;27;83754;-61
2021/12/28 11:58:51;;;;;;;;;;;9.20;87.00;;;;;;5068598;27;83331;-55
2021/12/28 12:01:35;;;;;;;;;;;9.30;87.90;;;;;;5068628;27;82129;-54
2021/12/28 12:04:01;;;;;;;;;;;9.30;86.80;;;;;;5069022;27;82435;-47
2021/12/28 12:07:05;;;;;;;;;;;9.30;86.30;;;;;;5068313;27;84565;-51
2021/12/28 12:09:31;;;;;;;;;;;9.30;86.60;;;;;;4965955;28;82107;-61
2021/12/28 12:12:15;;;;;;;;;;;9.40;88.60;;;;;;4969018;28;82705;-47
2021/12/28 12:14:50;;;;;;;;;;;9.50;87.90;;;;;;5026761;27;81422;-50
2021/12/28 12:17:27;;;;;;;;;;;9.50;86.50;;;;;;5068525;27;82048;-48
2021/12/28 12:19:53;;;;;;;;;;;9.40;86.50;;;;;;5068105;27;83780;-46
2021/12/28 12:22:38;;;;;;;;;;;9.40;86.10;;;;;;5067563;27;82993;-48
2021/12/28 12:25:07;;;;;;;;;;;9.40;85.60;;;;;;5068408;27;83291;-50
2021/12/28 12:27:51;;;;;;;;;;;9.50;85.50;;;;;;5068084;27;85000;-48
2021/12/28 12:30:17;;;;;;;;;;;9.50;85.10;;;;;;5068527;27;82080;-48
2021/12/28 12:32:54;;;;;;;;;;;9.50;85.00;;;;;;5068403;27;81913;-48
2021/12/28 12:35:32;;;;;;;;;;;9.40;85.40;;;;;;5070935;27;83122;-51
2021/12/28 12:38:02;;;;;;;;;;;9.40;85.40;;;;;;5068021;27;83229;-50
2021/12/28 12:40:46;;;;;;;;;;;9.50;85.30;;;;;;5068337;27;83647;-49
2021/12/28 12:43:13;;;;;;;;;;;9.50;85.30;;;;;;5067700;27;82049;-49
2021/12/28 12:45:50;;;;;;;;;;;9.50;85.60;;;;;;5067063;27;83995;-49
2021/12/28 12:48:38;;;;;;;;;;;9.50;85.50;;;;;;5066990;27;85814;-50
2021/12/28 12:51:21;;;;;;;;;;;9.60;85.50;;;;;;5067528;27;82086;-51
2021/12/28 12:54:16;;;;;;;;;;;9.60;85.30;;;;;;5067884;27;83699;-50
2021/12/28 12:56:50;;;;;;;;;;;9.50;85.40;;;;;;5066667;27;84572;-50
2021/12/28 12:59:16;;;;;;;;;;;9.60;85.40;;;;;;5067804;27;83609;-50
2021/12/28 13:01:41;;;;;;;;;;;9.60;85.60;;;;;;5067290;27;84498;-50
2021/12/28 13:04:28;;;;;;;;;;;9.60;85.40;;;;;;5067481;27;82034;-50
2021/12/28 13:06:56;;;;;;;;;;;9.60;85.50;;;;;;5067943;27;83605;-51
2021/12/28 13:09:22;;;;;;;;;;;9.60;85.40;;;;;;5067277;27;84622;-45
2021/12/28 13:11:48;;;;;;;;;;;9.60;85.40;;;;;;5067420;27;82096;-60
2021/12/28 13:14:14;;;;;;;;;;;9.60;85.30;;;;;;5067097;27;84096;-59
2021/12/28 13:16:39;;;;;;;;;;;9.60;85.80;;;;;;5067143;27;84411;-60
2021/12/28 13:19:13;;;;;;;;;;;9.60;85.30;;;;;;5070218;27;81924;-55
2021/12/28 13:21:39;;;;;;;;;;;9.60;85.40;;;;;;5067224;27;84201;-57
2021/12/28 13:24:09;;;;;;;;;;;9.60;85.60;;;;;;5067071;27;82224;-47
2021/12/28 13:26:45;;;;;;;;;;;9.70;85.90;;;;;;5067714;27;82060;-59
2021/12/28 13:29:11;;;;;;;;;;;9.70;85.60;;;;;;5066984;27;83185;-52
2021/12/28 13:31:36;;;;;;;;;;;9.80;85.60;;;;;;5067653;27;81322;-53
2021/12/28 13:34:02;;;;;;;;;;;9.80;85.30;;;;;;5067045;27;82393;-45
2021/12/28 13:36:28;;;;;;;;;;;9.90;84.90;;;;;;5067056;27;83706;-47
2021/12/28 13:39:08;;;;;;;;;;;9.90;85.00;;;;;;5066199;27;83080;-49
2021/12/28 13:41:33;;;;;;;;;;;9.90;84.10;;;;;;5069584;27;85857;-46
2021/12/28 13:44:03;;;;;;;;;;;9.90;83.00;;;;;;5067175;27;82104;-61
2021/12/28 13:46:28;;;;;;;;;;;9.90;83.00;;;;;;5067132;27;83825;-46
2021/12/28 13:48:54;;;;;;;;;;;9.90;84.20;;;;;;5066811;27;84822;-59
2021/12/28 13:51:23;;;;;;;;;;;9.90;82.70;;;;;;5066854;27;82090;-59
2021/12/28 13:53:53;;;;;;;;;;;9.90;83.10;;;;;;5067062;27;84046;-59
2021/12/28 13:56:20;;;;;;;;;;;10.00;83.50;;;;;;5067345;27;82011;-59
2021/12/28 13:58:47;;;;;;;;;;;10.00;81.80;;;;;;5069752;27;82031;-58
2021/12/28 14:01:17;;;;;;;;;;;9.90;82.30;;;;;;5070595;27;82457;-68
2021/12/28 14:03:54;;;;;;;;;;;9.90;82.40;;;;;;5072409;27;83014;-63
2021/12/28 14:06:19;;;;;;;;;;;9.90;82.40;;;;;;5070838;27;83233;-67
2021/12/28 14:08:45;;;;;;;;;;;10.00;82.90;;;;;;5070430;27;83154;-66
2021/12/28 14:11:10;;;;;;;;;;;10.00;83.30;;;;;;5070690;27;82146;-68
2021/12/28 14:13:38;;;;;;;;;;;10.00;83.70;;;;;;5070639;27;82073;-65
2021/12/28 14:16:07;;;;;;;;;;;10.00;83.90;;;;;;5070304;27;82935;-64
2021/12/28 14:18:36;;;;;;;;;;;10.00;84.10;;;;;;5070331;27;82125;-56
2021/12/28 14:21:12;;;;;;;;;;;10.00;84.90;;;;;;5070470;27;83901;-53
2021/12/28 14:23:38;;;;;;;;;;;9.90;83.90;;;;;;5069906;27;84486;-47
2021/12/28 14:26:14;;;;;;;;;;;10.00;83.60;;;;;;5072914;27;82215;-49
2021/12/28 14:28:41;;;;;;;;;;;10.00;83.70;;;;;;5069321;27;85506;-49
2021/12/28 14:31:09;;;;;;;;;;;9.90;83.20;;;;;;5069558;27;82164;-61
2021/12/28 14:33:53;;;;;;;;;;;10.00;83.60;;;;;;5070373;27;81731;-64